Main page
METAR-TAF:

METAR-TAF

Airports :

Kish International Airport

Kish, Iran

latitude: 26-31-36N, longitude: 053-58-54E, elevation: 30 m

Current weather observation

The report was made 50 minutes ago, at 10:00 UTC
Wind 12 kt from the South
Temperature 27°C
Humidity 48%
Pressure 1011 hPa
Visibility 10 km or more
no clouds below 1500 m and no cumulonimbus

METAR: OIBK 201000Z 18012KT CAVOK 27/15 Q1011 NOSIG

Time: 14:20 (10:50 UTC)

Forecast

The report was made 5 hours and 20 minutes ago, at 05:30 UTC
Forecast valid from 20 at 06 UTC to 21 at 12 UTC
Wind 8 kt from the East
Visibility: 7000 m
Few clouds at a height of 3000 ft
Temporary
from 20 at 10 UTC to 20 at 16 UTC
Wind 18 kt from the East
Few clouds at a height of 3500 ft, Cumulonimbus.
Broken clouds at a height of 10000 ft
Becoming
from 20 at 21 UTC to 20 at 23 UTC
Wind 12 kt from the Northwest

TAF: OIBK 200530Z 2006/2112 10008KT 7000 FEW030 TEMPO 2010/2016 10018KT FEW035CB SCT40 BKN100 BECMG 2021/2023 32012KT

Weather observations and forecasts of more than 4000 airports (METAR and TAF reports).

The available stations are represented by yellow and red dots on the map.

Hover mouse over dot to see the name of the station.

Then click to see weather observations and forecasts.

To change the map : click on the green buttons with a black cross to zoom in, on the green button with a dash to zoom out, or on the green arrows for adjacent maps.


METAR-TAF: